createdAt,value
2022-09-29T00:00:22.387Z,1.80
2022-09-29T00:00:55.718Z,2.00
2022-09-29T00:01:27.568Z,1.58
2022-09-29T00:01:59.434Z,2.22
2022-09-29T00:02:32.274Z,1.30
2022-09-29T00:03:05.699Z,2.05
2022-09-29T00:03:37.693Z,1.90
2022-09-29T00:04:10.541Z,1.52
2022-09-29T00:04:42.303Z,1.52
2022-09-29T00:05:14.133Z,1.95
2022-09-29T00:05:51.504Z,1.60
2022-09-29T00:06:23.462Z,1.77
2022-09-29T00:06:55.223Z,1.42
2022-09-29T00:07:29.420Z,1.73
2022-09-29T00:08:01.471Z,1.90
2022-09-29T00:08:33.250Z,1.60
2022-09-29T00:09:05.978Z,2.22
2022-09-29T00:09:38.158Z,1.50
2022-09-29T00:10:10.150Z,1.70
2022-09-29T00:10:42.956Z,1.60
2022-09-29T00:11:16.893Z,1.45
2022-09-29T00:11:48.650Z,2.00
2022-09-29T00:12:21.384Z,1.58
2022-09-29T00:12:53.822Z,1.33
2022-09-29T00:13:25.962Z,1.70
2022-09-29T00:13:58.826Z,1.95
2022-09-29T00:14:30.604Z,1.92
2022-09-29T00:15:02.648Z,1.38
2022-09-29T00:15:35.399Z,1.85
2022-09-29T00:16:07.662Z,1.60
2022-09-29T00:16:39.591Z,1.83
2022-09-29T00:17:12.328Z,1.90
2022-09-29T00:18:02.679Z,1.73
2022-09-29T00:18:38.244Z,1.77
2022-09-29T00:19:10.024Z,1.80
2022-09-29T00:19:41.850Z,1.80
2022-09-29T00:20:14.596Z,1.85
2022-09-29T00:20:56.592Z,1.60
2022-09-29T00:21:29.398Z,1.38
2022-09-29T00:22:01.788Z,1.50
2022-09-29T00:22:33.629Z,1.65
2022-09-29T00:23:05.480Z,1.50
2022-09-29T00:23:38.908Z,1.40
2022-09-29T00:24:10.723Z,1.50
2022-09-29T00:24:42.491Z,1.80
2022-09-29T00:25:15.352Z,2.20
2022-09-29T00:25:47.129Z,1.60
2022-09-29T00:26:20.687Z,1.70
2022-09-29T00:26:53.482Z,1.75
2022-09-29T00:27:25.992Z,1.90
2022-09-29T00:27:57.813Z,1.48
2022-09-29T00:28:29.867Z,1.40
2022-09-29T00:29:02.702Z,1.60
2022-09-29T00:29:34.567Z,1.70
2022-09-29T00:30:07.265Z,1.83
2022-09-29T00:30:40.030Z,2.03
2022-09-29T00:31:12.193Z,1.80
2022-09-29T00:31:44.205Z,1.90
2022-09-29T00:32:16.075Z,1.90
2022-09-29T00:32:48.901Z,1.80
2022-09-29T00:33:20.778Z,2.03
2022-09-29T00:33:54.997Z,1.50
2022-09-29T00:34:26.868Z,1.40
2022-09-29T00:34:58.657Z,1.80
2022-09-29T00:35:31.453Z,1.40
2022-09-29T00:36:05.885Z,1.60
2022-09-29T00:36:38.244Z,1.67
2022-09-29T00:37:11.165Z,2.13
2022-09-29T00:37:43.254Z,1.80
2022-09-29T00:38:15.074Z,1.40
2022-09-29T00:38:49.441Z,1.90
2022-09-29T00:39:21.291Z,1.80
2022-09-29T00:39:54.024Z,2.13
2022-09-29T00:40:25.956Z,1.60
2022-09-29T00:40:59.062Z,1.50
2022-09-29T00:41:33.847Z,1.55
2022-09-29T00:42:05.784Z,1.85
2022-09-29T00:42:38.558Z,1.63
2022-09-29T00:43:19.183Z,1.60
2022-09-29T00:43:57.660Z,1.65
2022-09-29T00:45:05.069Z,1.80
2022-09-29T00:45:37.269Z,1.83
2022-09-29T00:46:09.120Z,1.88
2022-09-29T00:46:46.374Z,1.52
2022-09-29T00:47:19.437Z,1.80
2022-09-29T00:48:00.128Z,1.70
2022-09-29T00:48:33.497Z,1.40
2022-09-29T00:49:12.768Z,1.30
2022-09-29T00:49:50.989Z,1.70
2022-09-29T00:50:28.915Z,1.30
2022-09-29T00:51:01.009Z,1.45
2022-09-29T00:51:34.921Z,1.60
2022-09-29T00:52:13.812Z,1.35
2022-09-29T00:52:50.017Z,1.58
2022-09-29T00:53:23.672Z,1.90
2022-09-29T00:53:56.869Z,1.70
2022-09-29T00:54:33.586Z,1.30
2022-09-29T00:55:08.583Z,1.80
2022-09-29T00:55:44.129Z,1.48
2022-09-29T00:56:19.956Z,1.70
2022-09-29T00:56:51.788Z,1.77
2022-09-29T00:57:35.077Z,1.67
2022-09-29T00:58:11.308Z,1.75
2022-09-29T00:58:50.304Z,1.48
2022-09-29T00:59:29.108Z,1.50
2022-09-29T01:00:05.689Z,1.80
2022-09-29T01:00:38.052Z,1.60
2022-09-29T01:01:12.133Z,1.40
2022-09-29T01:01:44.080Z,1.55
2022-09-29T01:02:19.983Z,1.42
2022-09-29T01:02:56.456Z,1.67
2022-09-29T01:03:33.621Z,2.03
2022-09-29T01:04:11.174Z,1.52
2022-09-29T01:04:43.464Z,1.45
2022-09-29T01:05:19.533Z,1.73
2022-09-29T01:05:55.043Z,1.95
2022-09-29T01:06:30.392Z,1.50
2022-09-29T01:07:03.519Z,1.65
2022-09-29T01:07:35.506Z,1.70
2022-09-29T01:08:13.492Z,1.70
2022-09-29T01:08:51.857Z,1.48
2022-09-29T01:09:27.311Z,1.45
2022-09-29T01:09:59.288Z,1.40
2022-09-29T01:10:32.430Z,1.35
2022-09-29T01:11:05.354Z,1.70
2022-09-29T01:11:38.350Z,1.58
2022-09-29T01:12:10.498Z,1.52
2022-09-29T01:12:43.525Z,1.52
2022-09-29T01:13:16.324Z,1.92
2022-09-29T01:13:48.967Z,1.55
2022-09-29T01:14:22.537Z,1.77
2022-09-29T01:14:55.907Z,1.27
2022-09-29T01:15:30.306Z,1.67
2022-09-29T01:16:02.294Z,1.60
2022-09-29T01:16:37.373Z,1.90
2022-09-29T01:17:09.333Z,2.05
2022-09-29T01:17:41.373Z,1.85
2022-09-29T01:18:14.208Z,1.65
2022-09-29T01:18:47.564Z,1.40
2022-09-29T01:19:30.051Z,1.40
2022-09-29T01:20:13.245Z,1.50
2022-09-29T01:20:54.921Z,1.83
2022-09-29T01:21:37.595Z,1.70
2022-09-29T01:22:22.976Z,1.42
2022-09-29T01:23:35.020Z,1.33
2022-09-29T01:24:56.304Z,2.30
2022-09-29T01:25:54.849Z,1.33
2022-09-29T01:26:56.717Z,1.90
2022-09-29T01:27:54.494Z,2.15
2022-09-29T01:28:47.087Z,1.63
2022-09-29T01:29:46.993Z,2.10
2022-09-29T01:30:30.123Z,2.10
2022-09-29T01:31:14.199Z,2.05
2022-09-29T01:31:56.516Z,2.00
2022-09-29T01:32:40.531Z,2.20
2022-09-29T01:33:24.789Z,1.63
2022-09-29T01:34:07.010Z,1.60
2022-09-29T01:34:46.741Z,1.85
2022-09-29T01:35:26.528Z,1.80
2022-09-29T01:36:05.485Z,2.10
2022-09-29T01:36:49.732Z,1.95
2022-09-29T01:37:31.765Z,2.00
2022-09-29T01:38:24.833Z,1.95
2022-09-29T01:39:18.017Z,1.70
2022-09-29T01:39:59.629Z,1.98
2022-09-29T01:40:38.821Z,1.33
2022-09-29T01:41:17.097Z,1.58
2022-09-29T01:41:53.802Z,1.83
2022-09-29T01:42:32.590Z,1.80
2022-09-29T01:43:09.701Z,1.90
2022-09-29T01:43:48.809Z,2.00
2022-09-29T01:44:25.818Z,1.63
2022-09-29T01:45:04.589Z,2.08
2022-09-29T01:45:40.267Z,1.73
2022-09-29T01:46:20.417Z,2.38
2022-09-29T01:46:57.332Z,2.00
2022-09-29T01:47:34.938Z,2.17
2022-09-29T01:48:09.497Z,1.50
2022-09-29T01:48:47.277Z,1.65
2022-09-29T01:49:21.726Z,1.58
2022-09-29T01:49:58.265Z,1.80
2022-09-29T01:50:36.469Z,1.95
2022-09-29T01:51:14.029Z,2.38
2022-09-29T01:51:52.793Z,1.80
2022-09-29T01:52:29.521Z,2.28
2022-09-29T01:53:08.499Z,2.15
2022-09-29T01:53:44.926Z,1.85
2022-09-29T01:54:22.600Z,1.80
2022-09-29T01:55:00.439Z,2.20
2022-09-29T01:55:36.754Z,2.35
2022-09-29T01:56:11.837Z,1.75
2022-09-29T01:56:49.130Z,1.70
2022-09-29T01:57:29.855Z,1.85
2022-09-29T01:58:06.549Z,1.67
2022-09-29T01:58:42.145Z,2.13
2022-09-29T01:59:19.545Z,1.75
2022-09-29T01:59:56.449Z,1.88
2022-09-29T02:00:32.316Z,1.58
2022-09-29T02:01:09.994Z,1.95
2022-09-29T02:01:48.155Z,2.08
2022-09-29T02:02:27.839Z,1.90
2022-09-29T02:03:05.977Z,1.73
2022-09-29T02:03:43.665Z,1.92
2022-09-29T02:04:20.247Z,1.60
2022-09-29T02:04:56.880Z,1.90
2022-09-29T02:05:34.294Z,1.85
2022-09-29T02:06:12.349Z,2.00
2022-09-29T02:06:49.856Z,1.58
2022-09-29T02:07:27.282Z,2.05
2022-09-29T02:08:09.574Z,1.70
2022-09-29T02:08:47.131Z,1.80
2022-09-29T02:09:24.249Z,1.73
2022-09-29T02:10:01.381Z,1.80
2022-09-29T02:10:37.982Z,1.15
2022-09-29T02:11:13.306Z,1.55
2022-09-29T02:11:46.832Z,1.80
2022-09-29T02:12:23.546Z,1.52
2022-09-29T02:12:58.902Z,1.70
2022-09-29T02:13:33.159Z,1.88
2022-09-29T02:14:11.671Z,1.92
2022-09-29T02:14:49.098Z,1.73
2022-09-29T02:15:26.717Z,1.95
2022-09-29T02:16:00.658Z,1.50
2022-09-29T02:16:38.122Z,1.60
2022-09-29T02:17:19.880Z,1.40
2022-09-29T02:17:53.123Z,1.63
2022-09-29T02:18:32.405Z,1.45
2022-09-29T02:19:10.480Z,1.35
2022-09-29T02:19:44.545Z,2.03
2022-09-29T02:20:16.490Z,2.00
2022-09-29T02:20:50.293Z,1.40
2022-09-29T02:21:24.173Z,1.77
2022-09-29T02:21:55.987Z,1.70
2022-09-29T02:22:28.186Z,1.80
2022-09-29T02:23:01.702Z,2.03
2022-09-29T02:23:33.509Z,1.48
2022-09-29T02:24:05.402Z,1.40
2022-09-29T02:24:38.297Z,1.63
2022-09-29T02:25:13.092Z,2.08
2022-09-29T02:25:48.995Z,1.70
2022-09-29T02:26:21.118Z,2.20
2022-09-29T02:26:52.982Z,1.90
2022-09-29T02:27:28.562Z,1.65
2022-09-29T02:28:00.590Z,4.15
2022-09-29T02:28:32.463Z,15.35
2022-09-29T02:29:07.304Z,39.88
2022-09-29T02:29:39.247Z,55.88
2022-09-29T02:30:12.212Z,41.08
2022-09-29T02:30:45.411Z,26.45
2022-09-29T02:31:17.338Z,12.57
2022-09-29T02:31:50.003Z,8.38
2022-09-29T02:32:24.314Z,6.38
2022-09-29T02:32:56.132Z,4.20
2022-09-29T02:33:27.901Z,2.58
2022-09-29T02:34:01.852Z,2.67
2022-09-29T02:34:41.233Z,2.15
2022-09-29T02:35:15.673Z,2.08
2022-09-29T02:35:56.881Z,1.95
2022-09-29T02:36:34.430Z,2.22
2022-09-29T02:37:15.327Z,1.67
2022-09-29T02:37:57.168Z,1.60
2022-09-29T02:38:39.932Z,1.60
2022-09-29T02:39:21.667Z,1.50
2022-09-29T02:40:03.809Z,1.92
2022-09-29T02:40:51.146Z,1.48
2022-09-29T02:41:37.419Z,2.10
2022-09-29T02:42:21.461Z,1.60
2022-09-29T02:43:07.264Z,1.60
2022-09-29T02:44:07.415Z,1.42
2022-09-29T02:44:57.224Z,1.70
2022-09-29T02:45:38.615Z,1.90
2022-09-29T02:46:25.773Z,1.80
2022-09-29T02:47:32.860Z,2.20
2022-09-29T02:48:21.757Z,1.65
2022-09-29T02:49:13.484Z,2.13
2022-09-29T02:50:11.161Z,1.80
2022-09-29T02:50:52.287Z,1.48
2022-09-29T02:51:30.228Z,1.60
2022-09-29T02:52:11.468Z,1.67
2022-09-29T02:52:51.063Z,2.00
2022-09-29T02:53:37.992Z,1.67
2022-09-29T02:54:26.768Z,2.03
2022-09-29T02:55:09.173Z,1.52
2022-09-29T02:55:46.031Z,1.70
2022-09-29T02:56:25.426Z,2.15
2022-09-29T02:57:09.518Z,2.03
2022-09-29T02:57:49.742Z,2.05
2022-09-29T02:58:29.376Z,1.95
2022-09-29T02:59:07.514Z,2.75
2022-09-29T02:59:45.824Z,2.00
2022-09-29T03:00:20.683Z,1.65
2022-09-29T03:00:54.096Z,1.60
2022-09-29T03:01:26.036Z,1.80
2022-09-29T03:01:59.017Z,1.70
2022-09-29T03:02:32.184Z,2.15
2022-09-29T03:03:04.008Z,1.83
2022-09-29T03:03:35.857Z,1.85
2022-09-29T03:04:08.904Z,1.60
2022-09-29T03:04:40.768Z,1.60
2022-09-29T03:05:14.892Z,1.90
2022-09-29T03:05:48.047Z,1.90
2022-09-29T03:06:21.427Z,2.35
2022-09-29T03:06:53.665Z,1.85
2022-09-29T03:07:26.458Z,2.08
2022-09-29T03:07:58.244Z,1.80
2022-09-29T03:08:30.052Z,2.08
2022-09-29T03:09:02.861Z,2.08
2022-09-29T03:09:34.653Z,1.75
2022-09-29T03:10:08.406Z,1.63
2022-09-29T03:10:41.145Z,1.92
2022-09-29T03:11:12.909Z,1.70
2022-09-29T03:11:44.843Z,2.08
2022-09-29T03:12:18.490Z,1.73
2022-09-29T03:12:50.257Z,1.70
2022-09-29T03:13:22.053Z,1.70
2022-09-29T03:13:55.189Z,1.88
2022-09-29T03:14:26.954Z,1.80
2022-09-29T03:14:58.748Z,2.30
2022-09-29T03:15:31.501Z,1.75
2022-09-29T03:16:03.316Z,1.75
2022-09-29T03:16:36.887Z,1.88
2022-09-29T03:17:09.650Z,2.33
2022-09-29T03:17:42.774Z,1.85
2022-09-29T03:18:14.557Z,1.90
2022-09-29T03:18:47.292Z,1.67
2022-09-29T03:19:19.045Z,2.20
2022-09-29T03:19:50.841Z,2.35
2022-09-29T03:20:23.649Z,1.60
2022-09-29T03:20:55.566Z,2.38
2022-09-29T03:21:27.497Z,2.05
2022-09-29T03:21:59.265Z,2.05
2022-09-29T03:22:32.546Z,1.60
2022-09-29T03:23:04.344Z,1.80
2022-09-29T03:23:36.125Z,1.90
2022-09-29T03:24:08.977Z,2.03
2022-09-29T03:24:41.834Z,2.15
2022-09-29T03:25:14.497Z,1.80
2022-09-29T03:25:47.889Z,2.15
2022-09-29T03:26:20.418Z,2.08
2022-09-29T03:26:52.322Z,2.15
2022-09-29T03:27:25.073Z,1.80
2022-09-29T03:27:56.833Z,1.95
2022-09-29T03:28:28.586Z,1.77
2022-09-29T03:29:01.545Z,1.75
2022-09-29T03:29:33.329Z,2.00
2022-09-29T03:30:06.061Z,2.05
2022-09-29T03:30:38.776Z,2.08
2022-09-29T03:31:10.830Z,1.95
2022-09-29T03:31:42.746Z,1.90
2022-09-29T03:32:15.526Z,2.05
2022-09-29T03:32:49.045Z,2.28
2022-09-29T03:33:20.916Z,1.83
2022-09-29T03:33:53.668Z,2.20
2022-09-29T03:34:25.442Z,2.20
2022-09-29T03:34:57.433Z,2.13
2022-09-29T03:35:30.188Z,2.28
2022-09-29T03:36:03.673Z,2.45
2022-09-29T03:36:36.407Z,2.00
2022-09-29T03:37:08.415Z,2.40
2022-09-29T03:37:40.260Z,2.30
2022-09-29T03:38:13.074Z,1.70
2022-09-29T03:38:46.992Z,2.20
2022-09-29T03:39:18.829Z,1.85
2022-09-29T03:39:51.681Z,2.20
2022-09-29T03:40:23.512Z,1.75
2022-09-29T03:40:55.337Z,1.63
2022-09-29T03:41:28.134Z,2.40
2022-09-29T03:42:00.051Z,2.35
2022-09-29T03:42:32.445Z,2.00
2022-09-29T03:43:05.185Z,2.00
2022-09-29T03:43:36.956Z,2.55
2022-09-29T03:44:08.765Z,1.75
2022-09-29T03:44:41.519Z,2.20
2022-09-29T03:45:13.373Z,1.80
2022-09-29T03:45:49.228Z,1.85
2022-09-29T03:46:22.070Z,2.15
2022-09-29T03:46:53.864Z,1.98
2022-09-29T03:47:25.622Z,1.73
2022-09-29T03:47:59.689Z,1.90
2022-09-29T03:48:33.997Z,1.80
2022-09-29T03:49:06.024Z,2.30
2022-09-29T03:49:38.794Z,2.03
2022-09-29T03:50:12.058Z,1.63
2022-09-29T03:50:45.298Z,2.40
2022-09-29T03:51:18.027Z,2.40
2022-09-29T03:51:49.842Z,2.00
2022-09-29T03:52:21.608Z,1.95
2022-09-29T03:52:54.338Z,2.10
2022-09-29T03:53:26.264Z,1.75
2022-09-29T03:53:58.290Z,2.38
2022-09-29T03:54:31.022Z,1.80
2022-09-29T03:55:03.223Z,2.60
2022-09-29T03:55:35.029Z,2.20
2022-09-29T03:56:07.951Z,1.70
2022-09-29T03:56:39.953Z,1.85
2022-09-29T03:57:12.215Z,2.28
2022-09-29T03:57:45.356Z,1.95
2022-09-29T03:58:17.848Z,1.63
2022-09-29T03:58:50.363Z,1.90
2022-09-29T03:59:23.346Z,2.25
2022-09-29T03:59:55.945Z,2.30
2022-09-29T04:00:27.829Z,2.03
2022-09-29T04:01:01.679Z,1.60
2022-09-29T04:01:33.573Z,2.28
2022-09-29T04:02:05.401Z,2.30
2022-09-29T04:02:38.186Z,1.85
2022-09-29T04:03:11.669Z,1.60
2022-09-29T04:03:44.412Z,2.22
2022-09-29T04:04:16.204Z,1.75
2022-09-29T04:04:48.017Z,2.20
2022-09-29T04:05:20.722Z,7.45
2022-09-29T04:05:52.489Z,20.98
2022-09-29T04:06:24.624Z,25.73
2022-09-29T04:06:57.383Z,21.42
2022-09-29T04:07:29.185Z,10.98
2022-09-29T04:08:01.238Z,4.10
2022-09-29T04:08:36.240Z,4.60
2022-09-29T04:09:08.449Z,5.45
2022-09-29T04:09:41.182Z,3.03
2022-09-29T04:10:13.128Z,4.00
2022-09-29T04:10:47.144Z,2.80
2022-09-29T04:11:19.928Z,2.42
2022-09-29T04:11:51.717Z,2.92
2022-09-29T04:12:23.492Z,3.00
2022-09-29T04:12:56.217Z,5.60
2022-09-29T04:13:27.970Z,5.30
2022-09-29T04:13:59.756Z,2.78
2022-09-29T04:14:32.531Z,2.70
2022-09-29T04:15:05.488Z,2.92
2022-09-29T04:15:37.925Z,2.45
2022-09-29T04:16:10.770Z,3.10
2022-09-29T04:16:42.654Z,3.33
2022-09-29T04:17:14.441Z,2.38
2022-09-29T04:17:47.176Z,2.13
2022-09-29T04:18:20.330Z,1.77
2022-09-29T04:18:52.143Z,1.42
2022-09-29T04:19:25.468Z,2.05
2022-09-29T04:19:57.252Z,1.55
2022-09-29T04:20:29.029Z,3.80
2022-09-29T04:21:06.185Z,1.80
2022-09-29T04:21:37.941Z,2.10
2022-09-29T04:22:09.704Z,1.70
2022-09-29T04:22:43.124Z,1.85
2022-09-29T04:23:14.962Z,1.48
2022-09-29T04:23:47.417Z,1.70
2022-09-29T04:24:20.174Z,1.83
2022-09-29T04:24:52.237Z,1.83
2022-09-29T04:25:24.173Z,1.70
2022-09-29T04:25:56.999Z,2.10
2022-09-29T04:26:28.852Z,1.73
2022-09-29T04:27:01.616Z,1.80
2022-09-29T04:27:33.417Z,1.80
2022-09-29T04:28:05.209Z,7.72
2022-09-29T04:28:40.387Z,11.02
2022-09-29T04:29:12.300Z,39.00
2022-09-29T04:29:45.610Z,18.75
2022-09-29T04:30:18.278Z,17.73
2022-09-29T04:30:50.330Z,10.30
2022-09-29T04:31:23.105Z,7.05
2022-09-29T04:31:55.043Z,6.40
2022-09-29T04:32:26.948Z,5.10
2022-09-29T04:32:59.714Z,3.67
2022-09-29T04:33:32.861Z,3.40
2022-09-29T04:34:04.812Z,2.97
2022-09-29T04:34:37.717Z,2.85
2022-09-29T04:35:09.675Z,2.40
2022-09-29T04:35:41.844Z,2.05
2022-09-29T04:36:14.837Z,2.33
2022-09-29T04:36:46.589Z,2.40
2022-09-29T04:37:18.412Z,2.45
2022-09-29T04:37:51.143Z,1.88
2022-09-29T04:38:22.905Z,1.70
2022-09-29T04:38:55.646Z,1.75
2022-09-29T04:39:27.604Z,1.80
2022-09-29T04:39:59.371Z,1.83
2022-09-29T04:40:32.630Z,1.80
2022-09-29T04:41:04.823Z,2.00
2022-09-29T04:41:39.533Z,1.80
2022-09-29T04:42:12.256Z,1.70
2022-09-29T04:42:44.017Z,1.40
2022-09-29T04:43:16.280Z,2.63
2022-09-29T04:43:49.009Z,1.70
2022-09-29T04:44:22.476Z,2.03
2022-09-29T04:44:54.253Z,1.90
2022-09-29T04:45:27.077Z,2.45
2022-09-29T04:46:03.702Z,7.80
2022-09-29T04:46:35.567Z,3.10
2022-09-29T04:47:08.318Z,2.60
2022-09-29T04:47:40.168Z,2.83
2022-09-29T04:48:12.017Z,4.93
2022-09-29T04:48:46.117Z,10.65
2022-09-29T04:49:18.010Z,11.63
2022-09-29T04:49:49.805Z,8.05
2022-09-29T04:50:22.604Z,7.95
2022-09-29T04:50:54.959Z,7.82
2022-09-29T04:51:26.882Z,5.85
2022-09-29T04:51:59.649Z,4.50
2022-09-29T04:52:31.422Z,3.35
2022-09-29T04:53:03.198Z,3.25
2022-09-29T04:53:35.933Z,3.10
2022-09-29T04:54:07.754Z,2.53
2022-09-29T04:54:39.689Z,2.00
2022-09-29T04:55:13.037Z,2.08
2022-09-29T04:55:44.838Z,2.28
2022-09-29T04:56:16.602Z,2.08
2022-09-29T04:56:49.783Z,2.05
2022-09-29T04:57:21.594Z,1.90
2022-09-29T04:57:53.473Z,3.20
2022-09-29T04:58:26.408Z,9.07
2022-09-29T04:58:58.521Z,12.98
2022-09-29T04:59:30.582Z,25.88
2022-09-29T05:00:04.196Z,10.95
2022-09-29T05:00:36.065Z,6.35
2022-09-29T05:01:09.458Z,4.40
2022-09-29T05:01:42.434Z,6.15
2022-09-29T05:02:14.378Z,4.30
2022-09-29T05:02:49.635Z,3.80
2022-09-29T05:03:23.445Z,3.63
2022-09-29T05:03:56.590Z,2.40
2022-09-29T05:04:28.381Z,2.78
2022-09-29T05:05:01.219Z,2.90
2022-09-29T05:05:33.008Z,2.25
2022-09-29T05:06:05.053Z,2.08
2022-09-29T05:06:39.318Z,2.53
2022-09-29T05:07:11.101Z,2.03
2022-09-29T05:07:43.011Z,1.77
2022-09-29T05:08:15.778Z,1.88
2022-09-29T05:08:47.822Z,1.90
2022-09-29T05:09:22.897Z,1.85
2022-09-29T05:09:57.513Z,1.65
2022-09-29T05:10:29.425Z,1.40
2022-09-29T05:11:05.014Z,1.73
2022-09-29T05:11:37.814Z,2.05
2022-09-29T05:12:09.661Z,1.75
2022-09-29T05:12:41.441Z,2.03
2022-09-29T05:13:13.212Z,2.17
2022-09-29T05:13:49.135Z,2.10
2022-09-29T05:14:20.892Z,2.20
2022-09-29T05:14:52.838Z,1.85
2022-09-29T05:15:26.205Z,1.92
2022-09-29T05:15:58.157Z,2.80
2022-09-29T05:16:30.172Z,1.80
2022-09-29T05:17:02.981Z,2.10
2022-09-29T05:17:34.804Z,1.90
2022-09-29T05:18:06.602Z,1.98
2022-09-29T05:18:39.345Z,1.75
2022-09-29T05:19:12.705Z,2.20
2022-09-29T05:19:44.512Z,1.90
2022-09-29T05:20:17.415Z,1.80
2022-09-29T05:21:10.254Z,1.48
2022-09-29T05:21:41.954Z,1.83
2022-09-29T05:22:13.772Z,2.60
2022-09-29T05:22:45.530Z,9.70
2022-09-29T05:23:18.323Z,6.78
2022-09-29T05:23:50.113Z,31.60
2022-09-29T05:24:22.875Z,21.48
2022-09-29T05:24:54.712Z,22.20
2022-09-29T05:25:27.779Z,14.45
2022-09-29T05:26:03.200Z,10.73
2022-09-29T05:26:35.030Z,6.32
2022-09-29T05:27:06.832Z,5.30
2022-09-29T05:27:39.850Z,3.65
2022-09-29T05:28:11.714Z,4.47
2022-09-29T05:28:45.100Z,3.50
2022-09-29T05:29:18.068Z,3.05
2022-09-29T05:29:49.914Z,2.97
2022-09-29T05:30:21.704Z,2.85
2022-09-29T05:30:54.489Z,2.50
2022-09-29T05:31:26.340Z,3.60
2022-09-29T05:31:58.274Z,3.10
2022-09-29T05:32:31.393Z,2.72
2022-09-29T05:33:03.201Z,2.58
2022-09-29T05:33:36.633Z,3.00
2022-09-29T05:34:09.592Z,2.67
2022-09-29T05:34:42.861Z,2.45
2022-09-29T05:35:14.976Z,2.55
2022-09-29T05:35:47.729Z,3.00
2022-09-29T05:36:19.530Z,2.45
2022-09-29T05:36:51.337Z,5.75
2022-09-29T05:37:24.145Z,18.35
2022-09-29T05:37:55.952Z,27.05
2022-09-29T05:38:28.123Z,41.72
2022-09-29T05:39:01.056Z,35.50
2022-09-29T05:39:34.484Z,35.80
2022-09-29T05:40:08.350Z,24.10
2022-09-29T05:40:41.103Z,15.65
2022-09-29T05:41:13.642Z,13.95
2022-09-29T05:41:45.445Z,9.23
2022-09-29T05:42:18.149Z,8.18
2022-09-29T05:42:49.909Z,5.90
2022-09-29T05:43:21.688Z,4.30
2022-09-29T05:43:55.950Z,3.80
2022-09-29T05:44:28.254Z,3.05
2022-09-29T05:45:00.179Z,2.90
2022-09-29T05:45:32.922Z,2.60
2022-09-29T05:46:07.061Z,2.92
2022-09-29T05:46:39.580Z,2.10
2022-09-29T05:47:12.311Z,2.88
2022-09-29T05:47:45.067Z,2.75
2022-09-29T05:48:17.332Z,2.75
2022-09-29T05:48:52.002Z,2.35
2022-09-29T05:49:23.849Z,2.40
2022-09-29T05:49:56.978Z,2.10
2022-09-29T05:50:29.743Z,2.20
2022-09-29T05:51:08.239Z,2.30
2022-09-29T05:51:41.027Z,2.50
2022-09-29T05:52:12.846Z,4.50
2022-09-29T05:52:48.830Z,6.68
2022-09-29T05:53:21.586Z,57.70
2022-09-29T05:53:54.122Z,21.15
2022-09-29T05:54:27.353Z,16.90
2022-09-29T05:55:00.128Z,16.33
2022-09-29T05:55:31.888Z,14.93
2022-09-29T05:56:08.413Z,8.38
2022-09-29T05:56:45.014Z,6.05
2022-09-29T05:57:18.518Z,5.40
2022-09-29T05:57:51.247Z,4.13
2022-09-29T05:58:23.008Z,4.80
2022-09-29T05:58:55.364Z,3.58
2022-09-29T05:59:28.116Z,3.60
2022-09-29T06:00:00.005Z,3.90
2022-09-29T06:00:32.351Z,4.15
2022-09-29T06:01:09.190Z,4.70
2022-09-29T06:01:41.174Z,3.05
2022-09-29T06:02:13.623Z,3.60
2022-09-29T06:02:46.513Z,3.20
2022-09-29T06:03:18.278Z,3.83
2022-09-29T06:03:52.005Z,3.88
2022-09-29T06:04:23.765Z,3.60
2022-09-29T06:04:56.869Z,4.30
2022-09-29T06:05:30.308Z,4.57
2022-09-29T06:06:06.541Z,3.95
2022-09-29T06:06:40.146Z,3.60
2022-09-29T06:07:12.897Z,4.30
2022-09-29T06:07:44.711Z,3.70
2022-09-29T06:08:17.480Z,3.97
2022-09-29T06:08:49.633Z,3.72
2022-09-29T06:09:22.372Z,3.35
2022-09-29T06:09:54.805Z,3.53
2022-09-29T06:10:26.586Z,2.83
2022-09-29T06:11:04.424Z,3.85
2022-09-29T06:11:36.227Z,3.13
2022-09-29T06:12:08.970Z,3.78
2022-09-29T06:12:40.764Z,3.25
2022-09-29T06:13:12.670Z,2.80
2022-09-29T06:13:47.491Z,3.13
2022-09-29T06:14:19.388Z,3.60
2022-09-29T06:14:51.184Z,3.55
2022-09-29T06:15:24.090Z,2.58
2022-09-29T06:15:58.089Z,3.20
2022-09-29T06:16:31.921Z,3.25
2022-09-29T06:17:04.708Z,3.08
2022-09-29T06:17:36.486Z,3.40
2022-09-29T06:18:09.253Z,3.70
2022-09-29T06:18:41.401Z,2.50
2022-09-29T06:19:14.678Z,3.15
2022-09-29T06:19:46.537Z,3.63
2022-09-29T06:20:19.694Z,3.50
2022-09-29T06:20:52.497Z,3.53
2022-09-29T06:21:25.860Z,3.30
2022-09-29T06:21:58.589Z,3.10
2022-09-29T06:22:30.741Z,3.38
2022-09-29T06:23:02.493Z,3.20
2022-09-29T06:23:35.787Z,2.90
2022-09-29T06:24:07.635Z,4.63
2022-09-29T06:24:40.373Z,3.35
2022-09-29T06:25:12.145Z,3.95
2022-09-29T06:25:43.919Z,2.92
2022-09-29T06:26:23.427Z,2.75
2022-09-29T06:26:55.916Z,4.70
2022-09-29T06:27:28.627Z,5.30
2022-09-29T06:28:00.710Z,8.15
2022-09-29T06:28:32.946Z,11.75
2022-09-29T06:29:05.885Z,30.17
2022-09-29T06:29:37.829Z,23.08
2022-09-29T06:30:12.947Z,13.88
2022-09-29T06:30:45.847Z,7.47
2022-09-29T06:31:19.097Z,6.05
2022-09-29T06:31:52.056Z,4.40
2022-09-29T06:32:23.947Z,3.63
2022-09-29T06:32:56.329Z,2.92
2022-09-29T06:33:29.173Z,3.38
2022-09-29T06:34:03.188Z,2.28
2022-09-29T06:34:58.604Z,3.53
2022-09-29T06:35:52.757Z,3.00
2022-09-29T06:36:47.037Z,2.60
2022-09-29T06:37:39.312Z,2.80
2022-09-29T06:38:11.646Z,2.55
2022-09-29T06:38:43.886Z,3.33
2022-09-29T06:39:17.385Z,2.60
2022-09-29T06:39:49.361Z,3.00
2022-09-29T06:40:25.193Z,2.70
2022-09-29T06:40:57.215Z,2.65
2022-09-29T06:41:29.936Z,2.70
2022-09-29T06:42:03.138Z,3.40
2022-09-29T06:42:35.333Z,2.28
2022-09-29T06:43:07.197Z,2.72
2022-09-29T06:43:39.960Z,3.00
2022-09-29T06:44:11.736Z,2.35
2022-09-29T06:44:44.490Z,2.80
2022-09-29T06:45:20.237Z,2.78
2022-09-29T06:45:53.964Z,2.63
2022-09-29T06:46:27.814Z,2.60
2022-09-29T06:46:59.614Z,2.55
2022-09-29T06:47:31.450Z,3.28
2022-09-29T06:48:04.277Z,3.30
2022-09-29T06:48:36.383Z,3.00
2022-09-29T06:49:08.191Z,2.90
2022-09-29T06:49:46.310Z,2.83
2022-09-29T06:50:28.970Z,3.22
2022-09-29T06:51:09.957Z,3.08
2022-09-29T06:51:46.282Z,2.92
2022-09-29T06:52:21.387Z,2.70
2022-09-29T06:53:02.734Z,2.33
2022-09-29T06:53:38.829Z,2.80
2022-09-29T06:54:12.337Z,2.80
2022-09-29T06:54:45.404Z,2.28
2022-09-29T06:55:17.185Z,3.38
2022-09-29T06:55:52.749Z,2.97
2022-09-29T06:56:26.208Z,3.65
2022-09-29T06:56:57.983Z,6.57
2022-09-29T06:57:30.734Z,18.63
2022-09-29T06:58:04.287Z,42.08
2022-09-29T06:58:36.703Z,30.45
2022-09-29T06:59:09.868Z,34.17
2022-09-29T06:59:41.926Z,31.52
2022-09-29T07:00:15.069Z,42.58
2022-09-29T07:00:49.919Z,46.58
2022-09-29T07:01:23.737Z,25.75
2022-09-29T07:01:55.594Z,13.50
2022-09-29T07:02:27.471Z,18.35
2022-09-29T07:03:00.246Z,13.20
2022-09-29T07:03:32.381Z,18.60
2022-09-29T07:04:04.203Z,17.08
2022-09-29T07:04:36.947Z,11.70
2022-09-29T07:05:09.418Z,14.95
2022-09-29T07:05:43.735Z,10.68
2022-09-29T07:06:20.768Z,9.50
2022-09-29T07:06:52.742Z,11.07
2022-09-29T07:07:25.570Z,10.60
2022-09-29T07:08:00.864Z,6.85
2022-09-29T07:08:35.168Z,8.95
2022-09-29T07:09:07.952Z,13.57
2022-09-29T07:09:39.733Z,18.33
2022-09-29T07:10:11.528Z,22.92
2022-09-29T07:10:44.490Z,20.88
2022-09-29T07:11:16.571Z,24.95
2022-09-29T07:11:50.087Z,29.50
2022-09-29T07:12:23.201Z,23.05
2022-09-29T07:12:55.493Z,24.23
2022-09-29T07:13:27.508Z,34.70
2022-09-29T07:14:00.219Z,38.03
2022-09-29T07:14:32.129Z,29.73
2022-09-29T07:15:04.389Z,16.17
2022-09-29T07:15:38.022Z,16.45
2022-09-29T07:16:12.159Z,13.75
2022-09-29T07:16:44.229Z,24.77
2022-09-29T07:17:17.641Z,20.77
2022-09-29T07:17:51.784Z,19.73
2022-09-29T07:18:24.570Z,32.78
2022-09-29T07:18:56.348Z,31.83
2022-09-29T07:19:28.804Z,25.98
2022-09-29T07:20:01.923Z,34.25
2022-09-29T07:20:35.460Z,33.67
2022-09-29T07:21:10.408Z,25.60
2022-09-29T07:21:43.527Z,19.23
2022-09-29T07:22:16.268Z,12.15
2022-09-29T07:22:48.037Z,8.90
2022-09-29T07:23:20.139Z,7.53
2022-09-29T07:23:52.896Z,7.13
2022-09-29T07:24:24.910Z,8.60
2022-09-29T07:24:56.681Z,14.75
2022-09-29T07:25:50.675Z,21.50
2022-09-29T07:26:22.213Z,13.10
2022-09-29T07:26:55.034Z,7.60
2022-09-29T07:27:26.776Z,8.18
2022-09-29T07:27:58.543Z,6.97
2022-09-29T07:28:31.489Z,6.25
2022-09-29T07:29:03.380Z,5.28
2022-09-29T07:29:36.129Z,6.65
2022-09-29T07:30:09.425Z,5.95
2022-09-29T07:30:41.299Z,6.55
2022-09-29T07:31:16.504Z,5.75
2022-09-29T07:31:52.613Z,4.40
2022-09-29T07:32:28.665Z,3.47
2022-09-29T07:33:02.628Z,30.15
2022-09-29T07:33:38.858Z,22.55
2022-09-29T07:34:11.996Z,11.48
2022-09-29T07:34:44.173Z,8.95
2022-09-29T07:35:15.961Z,6.10
2022-09-29T07:35:53.105Z,5.60
2022-09-29T07:36:25.096Z,3.97
2022-09-29T07:36:59.221Z,4.75
2022-09-29T07:37:31.140Z,3.67
2022-09-29T07:38:02.922Z,4.05
2022-09-29T07:38:35.757Z,2.75